ジュネーヴ の空港の天気 - METARとTAF

ジュネーヴ・コアントラン国際空港 ( LSGG / GVA ) - スイス ジュネーヴ
飛行場実況気象(Metar)
観測時間11/14 18:20 CET (11/14 17:20 UTC)
風向・風速北 2m/s
視程10km以上
天気現象
全天を覆う雲 雲底高度 550m
気温11℃
湿度87%
気圧1027hPa
METARLSGG 141720Z 36003KT 9999 OVC018 11/09 Q1027 NOSIG
過去の天気等 Google飛行場航空写真 Wunderground天気予報

過去48時間のMETAR

飛行場予報(TAF)
発表時間: 11/14 15:25 CET (11/14 14:25 UTC)
予報対象時間: 14日16時 CET ~ 15日22時 CET
風向・風速北東 2m/s
視程10km以上
少しの雲 雲底高度 300m
全天の8割程度の雲 雲底高度 610m
15日5時 CET ~ 15日9時 CET に徐々に
視程4000m
天気現象もや
全天を覆う雲 雲底高度 300m
15日13時 CET ~ 15日15時 CET に徐々に
視程10km以上
全天の4割程度の雲 雲底高度 610m
TAF LSGG 141425Z 1415/1521 05003KT 9999 FEW010 BKN020 TX12/1415Z TN05/1506Z TX12/1515Z
BECMG 1504/1508 4000 BR OVC010
BECMG 1512/1514 9999 SCT020